createdAt,value
2022-08-16T00:00:38.759Z,55.05
2022-08-16T00:01:42.231Z,55.79
2022-08-16T00:02:49.093Z,56.33
2022-08-16T00:03:53.192Z,56.32
2022-08-16T00:04:59.622Z,57.63
2022-08-16T00:06:03.344Z,58.33
2022-08-16T00:07:07.988Z,58.60
2022-08-16T00:08:36.508Z,58.80
2022-08-16T00:09:41.725Z,58.42
2022-08-16T00:10:45.061Z,58.23
2022-08-16T00:11:52.826Z,57.70
2022-08-16T00:12:59.003Z,56.39
2022-08-16T00:14:02.376Z,55.96
2022-08-16T00:15:17.081Z,55.91
2022-08-16T00:17:05.688Z,56.18
2022-08-16T00:17:56.171Z,56.83
2022-08-16T00:19:00.973Z,57.48
2022-08-16T00:20:12.431Z,57.92
2022-08-16T00:21:15.846Z,57.99
2022-08-16T00:22:20.815Z,57.91
2022-08-16T00:23:40.163Z,58.14
2022-08-16T00:24:46.731Z,58.64
2022-08-16T00:26:35.740Z,59.13
2022-08-16T00:27:13.066Z,59.24
2022-08-16T00:28:22.002Z,58.86
2022-08-16T00:29:32.801Z,58.73
2022-08-16T00:30:36.281Z,58.55
2022-08-16T00:31:59.867Z,57.97
2022-08-16T00:33:08.412Z,58.34
2022-08-16T00:34:18.256Z,58.14
2022-08-16T00:35:26.371Z,58.04
2022-08-16T00:36:32.265Z,58.07
2022-08-16T00:37:56.679Z,58.70
2022-08-16T00:38:58.853Z,59.14
2022-08-16T00:40:06.519Z,59.12
2022-08-16T00:41:31.148Z,59.25
2022-08-16T00:42:41.551Z,60.61
2022-08-16T00:43:44.564Z,60.88
2022-08-16T00:44:56.011Z,60.89
2022-08-16T00:46:22.463Z,60.94
2022-08-16T00:47:40.302Z,61.06
2022-08-16T00:48:46.938Z,62.21
2022-08-16T00:49:56.480Z,61.68
2022-08-16T00:51:01.115Z,61.18
2022-08-16T00:52:05.775Z,60.64
2022-08-16T00:53:30.785Z,60.69
2022-08-16T00:54:34.289Z,61.46
2022-08-16T00:55:42.264Z,61.32
2022-08-16T00:56:57.474Z,60.87
2022-08-16T00:58:02.468Z,60.40
2022-08-16T00:59:09.246Z,59.30
2022-08-16T01:00:13.943Z,58.54
2022-08-16T01:01:23.266Z,58.89
2022-08-16T01:02:31.823Z,59.18
2022-08-16T01:03:37.572Z,59.57
2022-08-16T01:05:09.691Z,60.23
2022-08-16T01:06:40.321Z,60.27
2022-08-16T01:07:51.192Z,59.79
2022-08-16T01:09:00.430Z,59.06
2022-08-16T01:10:04.337Z,58.78
2022-08-16T01:11:24.231Z,59.49
2022-08-16T01:12:27.397Z,60.16
2022-08-16T01:13:33.679Z,60.45
2022-08-16T01:14:49.443Z,60.30
2022-08-16T01:16:03.156Z,60.85
2022-08-16T01:17:08.489Z,61.12
2022-08-16T01:18:39.474Z,61.25
2022-08-16T01:19:46.457Z,61.60
2022-08-16T01:21:22.660Z,61.12
2022-08-16T01:22:58.904Z,60.74
2022-08-16T01:24:02.458Z,60.52
2022-08-16T01:25:23.819Z,61.12
2022-08-16T01:26:38.974Z,61.51
2022-08-16T01:27:48.475Z,62.21
2022-08-16T01:28:52.159Z,62.24
2022-08-16T01:30:20.659Z,62.05
2022-08-16T01:31:31.002Z,61.10
2022-08-16T01:32:38.935Z,60.59
2022-08-16T01:33:44.626Z,60.37
2022-08-16T01:34:53.696Z,61.09
2022-08-16T01:36:12.181Z,62.16
2022-08-16T01:37:16.137Z,62.53
2022-08-16T01:38:25.844Z,62.49
2022-08-16T01:39:35.369Z,62.05
2022-08-16T01:40:38.683Z,62.12
2022-08-16T01:41:42.324Z,62.57
2022-08-16T01:42:53.906Z,62.87
2022-08-16T01:44:00.964Z,62.89
2022-08-16T01:45:05.879Z,62.58
2022-08-16T01:46:37.073Z,61.65
2022-08-16T01:47:49.365Z,61.24
2022-08-16T01:48:59.187Z,62.14
2022-08-16T01:50:59.660Z,62.42
2022-08-16T01:51:27.428Z,62.76
2022-08-16T01:52:31.571Z,63.24
2022-08-16T01:53:36.318Z,64.10
2022-08-16T01:54:47.124Z,64.06
2022-08-16T01:55:53.890Z,64.11
2022-08-16T01:56:57.726Z,63.82
2022-08-16T01:58:01.845Z,63.51
2022-08-16T01:59:15.627Z,63.43
2022-08-16T02:00:19.844Z,63.77
2022-08-16T02:01:23.362Z,63.79
2022-08-16T02:02:32.083Z,64.05
2022-08-16T02:03:35.553Z,64.35
2022-08-16T02:04:54.364Z,64.53
2022-08-16T02:05:57.818Z,63.48
2022-08-16T02:07:04.146Z,62.20
2022-08-16T02:08:09.272Z,61.79
2022-08-16T02:09:33.825Z,61.39
2022-08-16T02:10:38.038Z,61.25
2022-08-16T02:11:48.387Z,61.26
2022-08-16T02:13:00.002Z,61.54
2022-08-16T02:14:05.595Z,61.74
2022-08-16T02:15:25.822Z,62.32
2022-08-16T02:16:28.995Z,62.74
2022-08-16T02:17:32.077Z,62.51
2022-08-16T02:18:36.990Z,62.09
2022-08-16T02:19:59.454Z,62.09
2022-08-16T02:21:05.410Z,61.88
2022-08-16T02:22:34.975Z,61.94
2022-08-16T02:23:37.664Z,62.10
2022-08-16T02:24:46.026Z,62.47
2022-08-16T02:25:52.176Z,62.80
2022-08-16T02:26:56.681Z,62.86
2022-08-16T02:28:00.370Z,62.28
2022-08-16T02:29:04.402Z,62.08
2022-08-16T02:30:36.561Z,62.68
2022-08-16T02:32:03.300Z,62.76
2022-08-16T02:33:08.488Z,63.05
2022-08-16T02:34:12.532Z,63.51
2022-08-16T02:35:16.024Z,63.78
2022-08-16T02:36:48.139Z,63.74
2022-08-16T02:37:52.540Z,63.51
2022-08-16T02:38:56.192Z,63.29
2022-08-16T02:40:00.038Z,63.49
2022-08-16T02:41:09.519Z,63.53
2022-08-16T02:42:12.642Z,63.57
2022-08-16T02:43:15.824Z,64.27
2022-08-16T02:44:19.640Z,65.67
2022-08-16T02:45:27.705Z,65.78
2022-08-16T02:46:33.639Z,65.60
2022-08-16T02:48:00.264Z,65.25
2022-08-16T02:49:02.293Z,64.44
2022-08-16T02:50:55.563Z,63.10
2022-08-16T02:51:29.578Z,62.08
2022-08-16T02:52:34.647Z,62.32
2022-08-16T02:53:41.220Z,62.73
2022-08-16T02:54:46.413Z,63.39
2022-08-16T02:55:59.389Z,64.21
2022-08-16T02:57:04.713Z,64.85
2022-08-16T02:58:11.864Z,65.07
2022-08-16T02:59:18.508Z,64.83
2022-08-16T03:00:34.321Z,64.77
2022-08-16T03:01:39.336Z,65.29
2022-08-16T03:02:47.317Z,64.61
2022-08-16T03:04:39.762Z,64.05
2022-08-16T03:05:24.467Z,63.93
2022-08-16T03:06:41.339Z,63.89
2022-08-16T03:07:50.603Z,63.55
2022-08-16T03:08:56.181Z,64.14
2022-08-16T03:10:00.606Z,64.14
2022-08-16T03:11:04.394Z,63.76
2022-08-16T03:12:07.810Z,63.96
2022-08-16T03:13:12.551Z,65.46
2022-08-16T03:14:21.279Z,66.34
2022-08-16T03:15:27.850Z,66.00
2022-08-16T03:16:38.336Z,65.47
2022-08-16T03:17:53.099Z,65.28
2022-08-16T03:18:57.398Z,65.35
2022-08-16T03:20:02.947Z,65.22
2022-08-16T03:21:07.541Z,65.22
2022-08-16T03:22:13.292Z,64.95
2022-08-16T03:23:22.950Z,64.52
2022-08-16T03:24:29.279Z,64.79
2022-08-16T03:25:41.154Z,65.07
2022-08-16T03:26:47.840Z,66.29
2022-08-16T03:27:54.376Z,66.67
2022-08-16T03:28:59.958Z,66.51
2022-08-16T03:30:17.891Z,67.01
2022-08-16T03:31:21.178Z,66.96
2022-08-16T03:32:24.032Z,66.96
2022-08-16T03:33:29.918Z,66.29
2022-08-16T03:34:36.127Z,66.80
2022-08-16T03:35:41.328Z,67.15
2022-08-16T03:36:44.473Z,67.01
2022-08-16T03:38:02.555Z,66.87
2022-08-16T03:39:14.897Z,66.73
2022-08-16T03:40:31.835Z,67.87
2022-08-16T03:41:49.842Z,67.09
2022-08-16T03:43:00.581Z,65.08
2022-08-16T03:44:44.615Z,63.33
2022-08-16T03:45:44.138Z,62.58
2022-08-16T03:46:50.167Z,62.00
2022-08-16T03:47:58.308Z,61.70
2022-08-16T03:49:05.152Z,62.78
2022-08-16T03:50:26.106Z,64.37
2022-08-16T03:51:29.882Z,64.42
2022-08-16T03:52:33.451Z,64.55
2022-08-16T03:53:38.476Z,64.80
2022-08-16T03:54:57.722Z,64.38
2022-08-16T03:56:02.143Z,63.62
2022-08-16T03:57:06.177Z,62.65
2022-08-16T03:58:16.680Z,62.23
2022-08-16T03:59:19.819Z,62.37
2022-08-16T04:00:35.946Z,64.04
2022-08-16T04:01:44.174Z,63.61
2022-08-16T04:02:48.580Z,65.27
2022-08-16T04:03:52.729Z,65.10
2022-08-16T04:04:56.057Z,62.72
2022-08-16T04:05:59.938Z,63.61
2022-08-16T04:07:07.438Z,63.41
2022-08-16T04:08:23.442Z,62.48
2022-08-16T04:09:27.731Z,61.43
2022-08-16T04:10:37.097Z,62.33
2022-08-16T04:11:41.021Z,61.32
2022-08-16T04:12:53.741Z,60.85
2022-08-16T04:13:59.246Z,61.20
2022-08-16T04:15:16.823Z,61.97
2022-08-16T04:16:26.118Z,63.64
2022-08-16T04:17:30.376Z,62.52
2022-08-16T04:18:37.314Z,62.87
2022-08-16T04:19:45.542Z,62.61
2022-08-16T04:20:48.843Z,61.54
2022-08-16T04:21:56.779Z,60.70
2022-08-16T04:23:00.778Z,61.30
2022-08-16T04:24:07.808Z,62.30
2022-08-16T04:25:13.045Z,62.70
2022-08-16T04:26:16.664Z,62.72
2022-08-16T04:27:24.393Z,62.88
2022-08-16T04:28:56.819Z,63.20
2022-08-16T04:29:55.163Z,63.28
2022-08-16T04:31:10.525Z,63.08
2022-08-16T04:32:13.992Z,63.83
2022-08-16T04:33:16.930Z,64.33
2022-08-16T04:34:19.838Z,64.00
2022-08-16T04:35:27.811Z,64.18
2022-08-16T04:36:37.499Z,63.76
2022-08-16T04:37:41.843Z,62.36
2022-08-16T04:38:50.122Z,64.26
2022-08-16T04:39:59.150Z,63.56
2022-08-16T04:41:01.982Z,63.79
2022-08-16T04:42:10.929Z,63.66
2022-08-16T04:43:17.592Z,64.15
2022-08-16T04:44:53.180Z,64.21
2022-08-16T04:45:47.736Z,64.05
2022-08-16T04:47:21.872Z,65.21
2022-08-16T04:48:32.478Z,63.14
2022-08-16T04:49:38.697Z,62.19
2022-08-16T04:50:49.529Z,61.44
2022-08-16T04:51:53.966Z,61.65
2022-08-16T04:52:59.698Z,62.05
2022-08-16T04:54:02.472Z,61.20
2022-08-16T04:55:13.895Z,61.29
2022-08-16T04:56:19.925Z,62.01
2022-08-16T04:57:23.350Z,62.99
2022-08-16T04:58:44.198Z,63.66
2022-08-16T04:59:49.284Z,63.70
2022-08-16T05:00:57.988Z,64.66
2022-08-16T05:02:02.293Z,65.54
2022-08-16T05:03:26.127Z,65.14
2022-08-16T05:04:30.039Z,66.02
2022-08-16T05:05:36.829Z,66.36
2022-08-16T05:06:48.626Z,66.05
2022-08-16T05:07:58.474Z,65.56
2022-08-16T05:09:05.049Z,65.23
2022-08-16T05:10:19.496Z,64.73
2022-08-16T05:11:25.431Z,64.36
2022-08-16T05:12:35.908Z,64.43
2022-08-16T05:13:43.464Z,63.75
2022-08-16T05:15:02.044Z,64.27
2022-08-16T05:16:06.464Z,64.56
2022-08-16T05:17:18.374Z,64.96
2022-08-16T05:18:27.466Z,66.72
2022-08-16T05:19:35.978Z,66.57
2022-08-16T05:21:01.467Z,66.44
2022-08-16T05:22:06.234Z,66.58
2022-08-16T05:23:21.126Z,66.76
2022-08-16T05:24:24.846Z,67.39
2022-08-16T05:25:40.827Z,67.06
2022-08-16T05:26:51.699Z,66.93
2022-08-16T05:27:56.553Z,67.55
2022-08-16T05:29:04.461Z,67.90
2022-08-16T05:30:34.744Z,67.50
2022-08-16T05:31:32.066Z,67.63
2022-08-16T05:32:47.507Z,68.29
2022-08-16T05:33:53.542Z,68.34
2022-08-16T05:34:57.645Z,68.16
2022-08-16T05:36:03.766Z,67.75
2022-08-16T05:37:06.983Z,68.77
2022-08-16T05:38:32.879Z,70.28
2022-08-16T05:39:33.552Z,70.66
2022-08-16T05:40:59.696Z,70.18
2022-08-16T05:42:03.393Z,70.20
2022-08-16T05:43:06.319Z,69.34
2022-08-16T05:44:24.192Z,69.51
2022-08-16T05:45:27.788Z,69.16
2022-08-16T05:46:32.606Z,69.70
2022-08-16T05:47:43.430Z,70.39
2022-08-16T05:48:54.728Z,71.47
2022-08-16T05:49:58.530Z,71.46
2022-08-16T05:51:01.591Z,72.36
2022-08-16T05:52:05.122Z,73.17
2022-08-16T05:53:14.474Z,74.35
2022-08-16T05:54:25.059Z,75.04
2022-08-16T05:55:28.759Z,75.12
2022-08-16T05:56:34.294Z,75.87
2022-08-16T05:57:41.883Z,77.07
2022-08-16T05:58:46.453Z,78.84
2022-08-16T05:59:59.724Z,79.83
2022-08-16T06:01:04.800Z,78.70
2022-08-16T06:02:09.369Z,78.73
2022-08-16T06:03:12.960Z,79.18
2022-08-16T06:04:35.260Z,79.57
2022-08-16T06:05:41.364Z,79.02
2022-08-16T06:06:55.688Z,78.52
2022-08-16T06:08:04.125Z,78.05
2022-08-16T06:09:15.184Z,77.08
2022-08-16T06:10:33.201Z,74.95
2022-08-16T06:11:40.146Z,75.79
2022-08-16T06:12:46.054Z,77.03
2022-08-16T06:13:56.302Z,76.91
2022-08-16T06:15:08.086Z,77.59
2022-08-16T06:16:18.078Z,77.35
2022-08-16T06:17:23.530Z,79.39
2022-08-16T06:18:30.345Z,78.90
2022-08-16T06:19:33.781Z,77.92
2022-08-16T06:20:55.674Z,78.96
2022-08-16T06:21:59.121Z,79.43
2022-08-16T06:23:04.023Z,78.35
2022-08-16T06:24:52.551Z,79.08
2022-08-16T06:25:39.609Z,80.28
2022-08-16T06:26:57.371Z,81.94
2022-08-16T06:28:08.759Z,84.92
2022-08-16T06:29:13.093Z,86.68
2022-08-16T06:30:19.817Z,83.43
2022-08-16T06:31:29.130Z,82.90
2022-08-16T06:32:36.986Z,82.66
2022-08-16T06:33:45.868Z,83.32
2022-08-16T06:34:57.191Z,81.38
2022-08-16T06:36:05.678Z,81.74
2022-08-16T06:37:11.671Z,78.77
2022-08-16T06:38:32.740Z,79.97
2022-08-16T06:39:46.669Z,79.93
2022-08-16T06:40:53.724Z,81.08
2022-08-16T06:41:57.904Z,80.68
2022-08-16T06:43:01.695Z,80.66
2022-08-16T06:44:04.917Z,79.35
2022-08-16T06:45:08.130Z,80.96
2022-08-16T06:46:31.339Z,76.71
2022-08-16T06:47:53.589Z,75.16
2022-08-16T06:48:58.629Z,76.98
2022-08-16T06:50:01.541Z,83.36
2022-08-16T06:51:06.507Z,82.74
2022-08-16T06:52:57.997Z,84.84
2022-08-16T06:53:34.842Z,80.03
2022-08-16T06:54:38.678Z,81.09
2022-08-16T06:55:43.427Z,84.43
2022-08-16T06:56:46.661Z,84.59
2022-08-16T06:57:51.676Z,84.35
2022-08-16T06:58:55.907Z,85.74
2022-08-16T06:59:59.202Z,85.25
2022-08-16T07:01:09.904Z,84.75
2022-08-16T07:02:32.507Z,86.23
2022-08-16T07:03:55.655Z,85.21
2022-08-16T07:05:00.169Z,85.11
2022-08-16T07:06:06.622Z,88.77
2022-08-16T07:07:14.685Z,90.34
2022-08-16T07:08:18.136Z,89.75
2022-08-16T07:09:22.604Z,87.16
2022-08-16T07:10:32.603Z,86.82
2022-08-16T07:11:45.756Z,89.68
2022-08-16T07:13:03.136Z,93.06
2022-08-16T07:14:25.650Z,93.48
2022-08-16T07:15:29.654Z,94.83
2022-08-16T07:16:32.553Z,93.77
2022-08-16T07:17:36.532Z,91.96
2022-08-16T07:18:58.871Z,91.71
2022-08-16T07:20:35.595Z,92.20
2022-08-16T07:21:45.793Z,91.60
2022-08-16T07:22:59.032Z,90.47
2022-08-16T07:24:06.191Z,90.81
2022-08-16T07:25:13.195Z,91.25
2022-08-16T07:26:25.609Z,89.73
2022-08-16T07:27:28.901Z,91.76
2022-08-16T07:28:37.424Z,93.18
2022-08-16T07:29:40.662Z,94.20
2022-08-16T07:30:46.996Z,91.46
2022-08-16T07:31:50.144Z,91.72
2022-08-16T07:32:56.911Z,93.42
2022-08-16T07:33:59.900Z,92.14
2022-08-16T07:35:03.053Z,92.18
2022-08-16T07:36:09.722Z,91.38
2022-08-16T07:37:12.878Z,89.81
2022-08-16T07:38:33.868Z,88.77
2022-08-16T07:39:43.268Z,88.41
2022-08-16T07:41:09.377Z,88.51
2022-08-16T07:42:09.391Z,90.74
2022-08-16T07:43:24.469Z,91.76
2022-08-16T07:44:49.160Z,90.59
2022-08-16T07:45:54.351Z,91.41
2022-08-16T07:46:57.281Z,93.55
2022-08-16T07:48:00.885Z,94.72
2022-08-16T07:49:15.339Z,93.41
2022-08-16T07:50:57.921Z,93.68
2022-08-16T07:51:44.390Z,92.62
2022-08-16T07:52:48.950Z,92.80
2022-08-16T07:54:02.510Z,92.56
2022-08-16T07:55:15.682Z,93.05
2022-08-16T07:56:19.679Z,92.13
2022-08-16T07:57:24.289Z,89.00
2022-08-16T07:58:34.695Z,90.85
2022-08-16T07:59:46.229Z,89.69
2022-08-16T08:00:49.642Z,90.78
2022-08-16T08:01:54.546Z,90.77
2022-08-16T08:03:00.704Z,89.60
2022-08-16T08:04:06.277Z,87.71
2022-08-16T08:05:16.062Z,88.28
2022-08-16T08:06:30.405Z,87.67
2022-08-16T08:07:33.554Z,87.65
2022-08-16T08:08:49.137Z,89.26
2022-08-16T08:09:55.423Z,87.11
2022-08-16T08:11:02.009Z,84.93
2022-08-16T08:12:31.857Z,86.69
2022-08-16T08:13:43.472Z,84.98
2022-08-16T08:14:47.583Z,79.63
2022-08-16T08:15:53.157Z,81.02
2022-08-16T08:16:56.232Z,78.40
2022-08-16T08:18:30.783Z,78.91
2022-08-16T08:19:22.901Z,77.78
2022-08-16T08:20:29.510Z,74.80
2022-08-16T08:22:00.111Z,65.36
2022-08-16T08:23:01.617Z,64.99
2022-08-16T08:24:09.342Z,66.12
2022-08-16T08:25:13.155Z,66.46
2022-08-16T08:26:19.912Z,70.99
2022-08-16T08:27:23.683Z,76.68
2022-08-16T08:28:31.112Z,75.33
2022-08-16T08:29:40.151Z,75.43
2022-08-16T08:30:49.238Z,76.81
2022-08-16T08:32:58.338Z,78.72
2022-08-16T08:33:29.562Z,80.00
2022-08-16T08:34:32.437Z,80.00
2022-08-16T08:35:36.029Z,80.84
2022-08-16T08:36:39.575Z,81.46
2022-08-16T08:37:55.320Z,77.06
2022-08-16T08:39:00.429Z,77.19
2022-08-16T08:40:09.533Z,76.00
2022-08-16T08:41:18.627Z,75.06
2022-08-16T08:42:28.940Z,75.04
2022-08-16T08:43:41.596Z,73.91
2022-08-16T08:44:45.232Z,75.42
2022-08-16T08:45:57.001Z,71.59
2022-08-16T08:47:12.064Z,71.39
2022-08-16T08:48:34.112Z,71.53
2022-08-16T08:49:50.400Z,71.46
2022-08-16T08:50:59.103Z,70.87
2022-08-16T08:52:02.681Z,63.59
2022-08-16T08:53:11.755Z,62.68
2022-08-16T08:54:18.832Z,67.54
2022-08-16T08:55:24.263Z,66.48
2022-08-16T08:56:30.316Z,66.41
2022-08-16T08:57:35.495Z,64.41
2022-08-16T08:58:41.081Z,54.43
2022-08-16T08:59:58.284Z,57.51
2022-08-16T09:01:01.617Z,60.67
2022-08-16T09:02:09.093Z,62.29
2022-08-16T09:03:15.123Z,52.87
2022-08-16T09:04:19.122Z,57.34
2022-08-16T09:05:35.739Z,59.29
2022-08-16T09:06:43.704Z,54.65
2022-08-16T09:08:00.576Z,53.96
2022-08-16T09:09:05.324Z,55.91
2022-08-16T09:10:20.919Z,57.33
2022-08-16T09:11:40.779Z,57.30
2022-08-16T09:12:47.473Z,56.58
2022-08-16T09:13:51.149Z,50.47
2022-08-16T09:14:54.447Z,50.64
2022-08-16T09:15:57.322Z,53.18
2022-08-16T09:17:11.480Z,50.79
2022-08-16T09:18:24.918Z,54.16
2022-08-16T09:19:32.800Z,53.15
2022-08-16T09:20:59.048Z,52.40
2022-08-16T09:21:59.901Z,51.65
2022-08-16T09:23:03.624Z,50.38
2022-08-16T09:24:10.044Z,50.03
2022-08-16T09:25:14.636Z,47.83
2022-08-16T09:26:45.318Z,50.13
2022-08-16T09:27:46.781Z,47.56
2022-08-16T09:29:14.505Z,48.97
2022-08-16T09:30:33.781Z,49.19
2022-08-16T09:31:41.123Z,47.74
2022-08-16T09:32:47.028Z,46.49
2022-08-16T09:33:52.099Z,42.40
2022-08-16T09:34:58.344Z,41.21
2022-08-16T09:36:02.084Z,41.82
2022-08-16T09:37:17.962Z,45.82
2022-08-16T09:38:32.519Z,45.50
2022-08-16T09:39:50.306Z,46.04
2022-08-16T09:40:55.745Z,44.20
2022-08-16T09:42:03.204Z,43.82
2022-08-16T09:43:06.468Z,44.42
2022-08-16T09:45:12.703Z,46.04
2022-08-16T09:45:39.239Z,43.44
2022-08-16T09:46:48.178Z,41.51
2022-08-16T09:47:57.269Z,43.44
2022-08-16T09:49:03.502Z,40.06
2022-08-16T09:50:11.746Z,37.90
2022-08-16T09:51:16.099Z,38.88
2022-08-16T09:52:22.510Z,39.02
2022-08-16T09:53:30.464Z,40.25
2022-08-16T09:54:35.283Z,39.85
2022-08-16T09:55:45.362Z,39.92
2022-08-16T09:56:53.825Z,38.37
2022-08-16T09:58:01.242Z,37.86
2022-08-16T09:59:12.116Z,38.93
2022-08-16T10:00:42.200Z,38.31
2022-08-16T10:01:43.506Z,34.69
2022-08-16T10:02:53.069Z,36.22
2022-08-16T10:04:02.254Z,34.33
2022-08-16T10:05:06.839Z,33.51
2022-08-16T10:06:11.265Z,34.06
2022-08-16T10:07:16.236Z,34.37
2022-08-16T10:08:26.329Z,35.57
2022-08-16T10:09:53.656Z,35.09
2022-08-16T10:11:11.967Z,33.22
2022-08-16T10:12:33.745Z,32.64
2022-08-16T10:13:36.554Z,33.07
2022-08-16T10:14:45.907Z,33.28
2022-08-16T10:15:55.114Z,32.29
2022-08-16T10:17:02.429Z,32.65
2022-08-16T10:19:00.233Z,32.01
2022-08-16T10:19:33.054Z,31.75
2022-08-16T10:20:46.190Z,33.00
2022-08-16T10:21:56.358Z,32.92
2022-08-16T10:23:05.866Z,33.45
2022-08-16T10:24:10.766Z,31.20
2022-08-16T10:27:00.648Z,30.27
2022-08-16T10:27:20.629Z,31.01
2022-08-16T10:28:26.227Z,31.99
2022-08-16T10:29:59.978Z,31.62
2022-08-16T10:31:06.696Z,30.24
2022-08-16T10:32:13.390Z,29.38
2022-08-16T10:33:24.006Z,30.83
2022-08-16T10:34:31.113Z,32.08
2022-08-16T10:35:35.660Z,30.54
2022-08-16T10:36:54.299Z,29.87
2022-08-16T10:37:57.882Z,28.12
2022-08-16T10:39:02.990Z,27.60
2022-08-16T10:40:28.630Z,28.25
2022-08-16T10:41:33.592Z,27.73
2022-08-16T10:42:36.731Z,27.96
2022-08-16T10:43:41.714Z,28.53
2022-08-16T10:44:53.470Z,27.95
2022-08-16T10:45:59.961Z,28.39
2022-08-16T10:47:04.954Z,27.29
2022-08-16T10:48:27.045Z,29.11
2022-08-16T10:49:31.259Z,27.41
2022-08-16T10:50:36.430Z,26.29
2022-08-16T10:52:01.360Z,28.80
2022-08-16T10:53:07.460Z,28.96
2022-08-16T10:54:28.509Z,28.64
2022-08-16T10:55:40.691Z,29.02
2022-08-16T10:56:55.564Z,29.67
2022-08-16T10:58:11.511Z,29.91
2022-08-16T10:59:44.968Z,30.51
2022-08-16T11:00:41.487Z,30.42
2022-08-16T11:02:21.778Z,31.54
2022-08-16T11:03:42.577Z,31.37
2022-08-16T11:05:59.484Z,30.90
2022-08-16T11:07:08.357Z,31.20
2022-08-16T11:08:16.435Z,31.14
2022-08-16T11:09:25.811Z,32.26
2022-08-16T11:11:10.524Z,31.79
2022-08-16T11:12:14.299Z,31.79
2022-08-16T11:17:02.173Z,33.39
2022-08-16T11:17:35.407Z,35.55
2022-08-16T11:18:48.316Z,37.28
2022-08-16T11:20:40.743Z,36.96
2022-08-16T11:21:29.249Z,39.93
2022-08-16T11:22:47.335Z,39.91
2022-08-16T11:23:58.197Z,40.35
2022-08-16T11:26:07.715Z,39.48
2022-08-16T11:26:25.077Z,40.92
2022-08-16T11:27:32.699Z,44.78
2022-08-16T11:30:03.048Z,47.50
2022-08-16T11:31:16.314Z,46.44
2022-08-16T11:32:20.314Z,44.50
2022-08-16T11:35:13.838Z,45.47
2022-08-16T11:36:25.149Z,43.56
2022-08-16T11:38:04.494Z,44.30
2022-08-16T11:39:00.684Z,43.03
2022-08-16T11:40:06.656Z,44.13
2022-08-16T11:41:12.278Z,44.12
2022-08-16T11:42:28.652Z,42.02
2022-08-16T11:43:38.252Z,41.90
2022-08-16T11:44:56.298Z,42.05
2022-08-16T11:46:44.189Z,42.01
2022-08-16T11:47:26.476Z,41.12
2022-08-16T11:48:37.634Z,42.38
2022-08-16T11:49:41.514Z,40.30
2022-08-16T11:50:44.690Z,40.41
2022-08-16T11:51:47.543Z,40.69
2022-08-16T11:52:50.690Z,40.84
2022-08-16T11:53:54.579Z,38.58
2022-08-16T11:55:00.294Z,37.14
2022-08-16T11:56:04.318Z,37.36
2022-08-16T11:57:09.707Z,36.79
2022-08-16T11:58:14.957Z,36.43
2022-08-16T11:59:25.369Z,35.90
2022-08-16T12:00:34.053Z,33.89
2022-08-16T12:01:59.162Z,32.90
2022-08-16T12:03:03.537Z,33.09
2022-08-16T12:04:08.149Z,33.32
2022-08-16T12:05:17.473Z,33.98
2022-08-16T12:06:25.132Z,33.88
2022-08-16T12:07:34.029Z,35.52
2022-08-16T12:08:43.591Z,36.44
2022-08-16T12:09:47.295Z,37.50
2022-08-16T12:10:52.423Z,38.02
2022-08-16T12:11:55.500Z,39.01
2022-08-16T12:12:58.473Z,39.93
2022-08-16T12:14:08.271Z,40.29
2022-08-16T12:15:13.446Z,40.42
2022-08-16T12:16:20.646Z,43.97
2022-08-16T12:17:23.755Z,46.40
2022-08-16T12:18:33.613Z,50.55
2022-08-16T12:19:36.810Z,52.20
2022-08-16T12:20:43.603Z,53.36
2022-08-16T12:21:58.129Z,52.99
2022-08-16T12:23:02.340Z,56.43
2022-08-16T12:24:06.221Z,59.51
2022-08-16T12:25:12.660Z,59.34
2022-08-16T12:26:18.834Z,57.56
2022-08-16T12:27:24.514Z,63.03
2022-08-16T12:28:52.054Z,73.34
2022-08-16T12:29:58.390Z,72.91
2022-08-16T12:31:05.628Z,63.64
2022-08-16T12:32:27.203Z,64.93
2022-08-16T12:33:42.970Z,71.56
2022-08-16T12:34:53.143Z,75.58
2022-08-16T12:35:56.732Z,75.70
2022-08-16T12:37:03.589Z,74.46
2022-08-16T12:38:41.425Z,77.38
2022-08-16T12:39:34.533Z,76.64
2022-08-16T12:40:41.958Z,76.28
2022-08-16T12:41:46.806Z,77.51
2022-08-16T12:42:52.893Z,81.74
2022-08-16T12:43:57.193Z,82.29
2022-08-16T12:45:14.191Z,84.90
2022-08-16T12:46:19.062Z,83.16
2022-08-16T12:47:40.595Z,85.82
2022-08-16T12:49:09.443Z,85.14
2022-08-16T12:50:15.411Z,85.71
2022-08-16T12:51:24.229Z,80.38
2022-08-16T12:52:33.791Z,73.37
2022-08-16T12:53:43.910Z,72.81
2022-08-16T12:54:54.989Z,73.39
2022-08-16T12:56:01.284Z,71.32
2022-08-16T12:57:06.989Z,76.36
2022-08-16T12:58:49.202Z,74.64
2022-08-16T12:59:43.130Z,70.27
2022-08-16T13:00:48.715Z,76.36
2022-08-16T13:01:58.223Z,75.07
2022-08-16T13:03:03.420Z,72.56
2022-08-16T13:04:12.491Z,73.76
2022-08-16T13:05:23.780Z,75.89
2022-08-16T13:06:29.296Z,77.60
2022-08-16T13:07:42.347Z,79.57
2022-08-16T13:08:53.986Z,79.37
2022-08-16T13:09:58.634Z,78.41
2022-08-16T13:11:01.980Z,76.79
2022-08-16T13:12:19.021Z,76.10
2022-08-16T13:13:25.861Z,76.21
2022-08-16T13:14:37.360Z,74.85
2022-08-16T13:15:55.588Z,74.54
2022-08-16T13:17:19.213Z,76.29
2022-08-16T13:18:32.331Z,74.84
2022-08-16T13:21:01.800Z,76.50
2022-08-16T13:22:05.835Z,75.03
2022-08-16T13:23:11.712Z,76.58
2022-08-16T13:24:19.495Z,76.98
2022-08-16T13:25:25.922Z,75.75
2022-08-16T13:26:31.342Z,60.21
2022-08-16T13:28:03.126Z,64.97
2022-08-16T13:29:00.392Z,67.86
2022-08-16T13:30:21.794Z,66.92
2022-08-16T13:31:28.437Z,67.98
2022-08-16T13:32:39.430Z,64.81
2022-08-16T13:33:43.220Z,63.83
2022-08-16T13:34:46.932Z,65.31
2022-08-16T13:35:58.057Z,67.58
2022-08-16T13:37:01.371Z,67.20
2022-08-16T13:38:04.432Z,66.40
2022-08-16T13:39:10.401Z,68.33
2022-08-16T13:40:19.757Z,68.72
2022-08-16T13:41:23.491Z,65.29
2022-08-16T13:42:26.766Z,49.52
2022-08-16T13:43:32.512Z,44.91
2022-08-16T13:44:56.270Z,54.20
2022-08-16T13:46:04.634Z,53.84
2022-08-16T13:47:08.566Z,56.30
2022-08-16T13:48:11.799Z,57.01
2022-08-16T13:49:27.431Z,60.65
2022-08-16T13:50:51.335Z,56.57
2022-08-16T13:51:55.137Z,52.09
2022-08-16T13:53:00.555Z,49.37
2022-08-16T13:54:04.317Z,46.28
2022-08-16T13:55:17.635Z,43.61
2022-08-16T13:56:25.139Z,46.08
2022-08-16T13:57:42.907Z,46.02
2022-08-16T13:58:54.836Z,44.81
2022-08-16T13:59:58.454Z,44.09
2022-08-16T14:01:02.505Z,42.58
2022-08-16T14:02:08.740Z,42.53
2022-08-16T14:03:14.759Z,47.01
2022-08-16T14:04:26.264Z,38.28
2022-08-16T14:05:29.807Z,41.99
2022-08-16T14:06:32.830Z,40.05
2022-08-16T14:07:40.541Z,44.08
2022-08-16T14:08:59.208Z,41.56
2022-08-16T14:10:13.109Z,40.39
2022-08-16T14:11:18.561Z,43.90
2022-08-16T14:12:32.867Z,39.58
2022-08-16T14:13:36.952Z,36.79
2022-08-16T14:14:40.069Z,36.78
2022-08-16T14:15:43.103Z,35.87
2022-08-16T14:16:46.039Z,34.78
2022-08-16T14:18:14.785Z,36.02
2022-08-16T14:19:22.333Z,36.57
2022-08-16T14:20:26.216Z,35.95
2022-08-16T14:21:34.949Z,38.72
2022-08-16T14:22:42.557Z,35.79
2022-08-16T14:23:45.579Z,36.03
2022-08-16T14:24:50.719Z,35.89
2022-08-16T14:25:54.539Z,36.65
2022-08-16T14:27:00.354Z,38.72
2022-08-16T14:28:09.704Z,34.92
2022-08-16T14:29:13.285Z,31.61
2022-08-16T14:30:19.175Z,36.35
2022-08-16T14:31:22.442Z,35.45
2022-08-16T14:32:33.069Z,33.94
2022-08-16T14:33:37.307Z,36.45
2022-08-16T14:34:41.078Z,37.21
2022-08-16T14:35:49.335Z,34.27
2022-08-16T14:36:53.791Z,32.75
2022-08-16T14:37:57.404Z,33.52
2022-08-16T14:39:01.770Z,32.83
2022-08-16T14:40:10.267Z,30.93
2022-08-16T14:41:16.115Z,30.23
2022-08-16T14:42:25.401Z,30.20
2022-08-16T14:43:29.738Z,30.67
2022-08-16T14:44:33.838Z,30.32
2022-08-16T14:45:37.201Z,31.56
2022-08-16T14:46:40.249Z,31.90
2022-08-16T14:47:46.021Z,34.14
2022-08-16T14:48:56.714Z,33.50
2022-08-16T14:49:59.699Z,33.77
2022-08-16T14:51:02.818Z,33.75
2022-08-16T14:52:09.820Z,37.78
2022-08-16T14:53:13.989Z,36.54
2022-08-16T14:54:20.200Z,36.10
2022-08-16T14:55:27.634Z,34.66
2022-08-16T14:56:38.935Z,34.51
2022-08-16T14:57:46.394Z,35.33
2022-08-16T14:58:52.555Z,36.37
2022-08-16T14:59:55.794Z,36.15
2022-08-16T15:01:01.907Z,36.70
2022-08-16T15:02:17.288Z,37.04
2022-08-16T15:03:37.809Z,37.88
2022-08-16T15:04:48.051Z,36.79
2022-08-16T15:05:53.906Z,36.68
2022-08-16T15:06:58.495Z,38.52